Time;durP1;ratioP1;P1;durP2;ratioP2;P2;SDS_P1;SDS_P2;PMS_P1;PMS_P2;Temp;Humidity;BMP_temperature;BMP_pressure;BME280_temperature;BME280_humidity;BME280_pressure;Samples;Min_cycle;Max_cycle;Signal;HPM_P1;HPM_P2
2022/12/02 00:01:14;;;;;;;25.60;16.40;;;;;;;-1.51;100.00;97402.89;105386;1301;22581;-76
2022/12/02 00:03:44;;;;;;;31.00;19.30;;;;;;;-1.54;100.00;97401.25;105395;1296;22475;-76
2022/12/02 00:06:16;;;;;;;28.80;17.70;;;;;;;-1.59;100.00;97398.58;104380;1286;1142605;-76
2022/12/02 00:08:44;;;;;;;31.30;19.60;;;;;;;-1.60;100.00;97402.02;105251;1284;22490;-76
2022/12/02 00:11:26;;;;;;;30.00;18.90;;;;;;;-1.58;100.00;97399.23;105248;1303;25459;-76
2022/12/02 00:13:56;;;;;;;31.60;19.90;;;;;;;-1.57;100.00;97398.56;105137;1295;22468;-76
2022/12/02 00:16:26;;;;;;;33.00;21.00;;;;;;;-1.57;100.00;97393.45;105436;1279;22451;-76
2022/12/02 00:18:56;;;;;;;31.90;20.60;;;;;;;-1.56;100.00;97396.02;105445;1285;25222;-76
2022/12/02 00:21:24;;;;;;;28.20;17.40;;;;;;;-1.54;100.00;97398.58;105439;1301;22457;-76
2022/12/02 00:23:53;;;;;;;31.10;20.10;;;;;;;-1.57;100.00;97395.89;105431;1289;23050;-76
2022/12/02 00:26:21;;;;;;;35.60;22.00;;;;;;;-1.59;100.00;97390.06;105412;1301;23060;-76
2022/12/02 00:28:50;;;;;;;32.10;19.80;;;;;;;-1.59;100.00;97388.19;105415;1301;25335;-77
2022/12/02 00:31:18;;;;;;;28.70;18.00;;;;;;;-1.58;100.00;97389.80;105397;1285;23987;-76
2022/12/02 00:33:47;;;;;;;29.00;19.50;;;;;;;-1.57;100.00;97390.55;105425;1301;22472;-76
2022/12/02 00:36:15;;;;;;;29.10;19.40;;;;;;;-1.60;100.00;97393.54;105407;1301;31968;-76
2022/12/02 00:38:46;;;;;;;30.10;19.90;;;;;;;-1.60;100.00;97389.54;105468;1286;22937;-76
2022/12/02 00:41:15;;;;;;;30.30;19.20;;;;;;;-1.60;100.00;97387.85;105383;1288;25326;-76
2022/12/02 00:46:34;;;;;;;30.20;19.30;;;;;;;-1.64;100.00;97385.38;105398;1301;22464;-76
2022/12/02 00:49:07;;;;;;;30.00;19.70;;;;;;;-1.62;100.00;97385.96;105422;1280;24486;-76
2022/12/02 00:51:37;;;;;;;35.80;21.50;;;;;;;-1.61;100.00;97389.96;105363;1301;25295;-76
2022/12/02 00:54:06;;;;;;;33.40;20.20;;;;;;;-1.61;100.00;97387.41;105327;1279;22498;-76
2022/12/02 00:56:35;;;;;;;34.70;20.40;;;;;;;-1.60;100.00;97385.77;105388;1288;22476;-76
2022/12/02 00:59:04;;;;;;;30.30;18.90;;;;;;;-1.60;100.00;97385.86;105427;1301;24527;-76
2022/12/02 01:01:34;;;;;;;31.50;20.50;;;;;;;-1.60;100.00;97383.17;105430;1279;25425;-76
2022/12/02 01:04:03;;;;;;;32.40;21.50;;;;;;;-1.62;100.00;97383.75;105375;1301;25488;-76
2022/12/02 01:06:31;;;;;;;32.50;21.70;;;;;;;-1.65;100.00;97384.05;105232;1303;22482;-76
2022/12/02 01:09:00;;;;;;;34.90;22.10;;;;;;;-1.66;100.00;97381.23;105219;1292;22528;-76
2022/12/02 01:11:28;;;;;;;32.20;20.50;;;;;;;-1.68;100.00;97379.80;105214;1303;22520;-76
2022/12/02 01:13:57;;;;;;;32.00;20.90;;;;;;;-1.70;100.00;97377.89;105156;1287;22508;-76
2022/12/02 01:16:25;;;;;;;30.50;19.50;;;;;;;-1.71;100.00;97380.56;105380;1301;22496;-76
2022/12/02 01:18:54;;;;;;;34.80;21.60;;;;;;;-1.75;100.00;97381.16;105396;1301;22482;-77
2022/12/02 01:21:23;;;;;;;33.10;21.70;;;;;;;-1.77;100.00;97380.81;105468;1295;22531;-76
2022/12/02 01:23:52;;;;;;;36.80;21.90;;;;;;;-1.73;100.00;97380.41;105441;1279;22491;-77
2022/12/02 01:26:20;;;;;;;32.00;19.90;;;;;;;-1.72;100.00;97380.94;105379;1299;22472;-76
2022/12/02 01:28:49;;;;;;;32.10;20.20;;;;;;;-1.74;100.00;97379.13;105390;1300;22505;-76
2022/12/02 01:31:18;;;;;;;35.80;21.10;;;;;;;-1.81;100.00;97378.04;105420;1292;22451;-76
2022/12/02 01:33:47;;;;;;;27.40;19.10;;;;;;;-1.86;100.00;97371.06;105436;1296;25259;-76
2022/12/02 01:36:15;;;;;;;33.20;20.40;;;;;;;-1.84;100.00;97371.59;105416;1288;22466;-76
2022/12/02 01:38:44;;;;;;;34.40;21.80;;;;;;;-1.84;100.00;97369.31;105442;1292;22462;-76
2022/12/02 01:41:12;;;;;;;35.80;21.40;;;;;;;-1.84;100.00;97365.14;105388;1282;25366;-76
2022/12/02 01:43:41;;;;;;;31.90;19.50;;;;;;;-1.82;100.00;97364.38;105490;1300;22470;-76
2022/12/02 01:46:10;;;;;;;30.40;20.00;;;;;;;-1.81;100.00;97363.81;105372;1288;22473;-76
2022/12/02 01:48:39;;;;;;;33.70;20.80;;;;;;;-1.85;100.00;97359.48;105465;1293;22412;-76
2022/12/02 01:51:07;;;;;;;33.50;21.70;;;;;;;-1.83;100.00;97361.71;105441;1301;22459;-76
2022/12/02 01:53:37;;;;;;;35.90;22.00;;;;;;;-1.80;100.00;97362.59;105432;1288;22458;-76
2022/12/02 01:56:08;;;;;;;33.30;22.10;;;;;;;-1.77;100.00;97357.95;105488;1293;22457;-76
2022/12/02 01:58:37;;;;;;;31.80;21.60;;;;;;;-1.75;100.00;97357.23;105374;1304;24437;-76
2022/12/02 02:01:23;;;;;;;31.80;20.90;;;;;;;-1.74;100.00;97355.05;105426;1301;22638;-76
2022/12/02 02:03:52;;;;;;;33.30;22.80;;;;;;;-1.75;100.00;97354.28;105367;1295;22702;-76
2022/12/02 02:06:21;;;;;;;32.20;22.50;;;;;;;-1.79;100.00;97354.23;105156;1288;22480;-76
2022/12/02 02:08:51;;;;;;;23.90;15.80;;;;;;;-1.82;100.00;97354.70;105216;1296;22484;-76
2022/12/02 02:11:20;;;;;;;32.60;22.30;;;;;;;-1.80;100.00;97354.64;105156;1291;21694;-77
2022/12/02 02:13:48;;;;;;;32.90;20.90;;;;;;;-1.79;100.00;97356.45;105236;1299;22485;-76
2022/12/02 02:16:17;;;;;;;32.60;22.60;;;;;;;-1.78;100.00;97353.73;105433;1300;22455;-76
2022/12/02 02:18:46;;;;;;;35.10;22.60;;;;;;;-1.77;100.00;97351.66;105443;1292;22479;-77
2022/12/02 02:21:20;;;;;;;33.90;20.80;;;;;;;-1.76;100.00;97356.08;105452;1300;22513;-76
2022/12/02 02:23:48;;;;;;;32.50;20.80;;;;;;;-1.77;100.00;97349.63;105472;1292;26789;-76
2022/12/02 02:26:17;;;;;;;32.40;22.30;;;;;;;-1.76;100.00;97353.55;105531;1276;22507;-76
2022/12/02 02:28:45;;;;;;;35.30;23.00;;;;;;;-1.77;100.00;97353.30;105398;1289;23267;-76
2022/12/02 02:31:14;;;;;;;36.00;20.40;;;;;;;-1.78;100.00;97353.98;105413;1301;22545;-76
2022/12/02 02:33:43;;;;;;;28.80;19.40;;;;;;;-1.81;100.00;97354.91;105465;1301;22497;-76
2022/12/02 02:36:12;;;;;;;31.70;20.60;;;;;;;-1.82;100.00;97351.02;105251;1301;22495;-77
2022/12/02 02:38:40;;;;;;;33.30;20.70;;;;;;;-1.84;100.00;97348.98;105202;1301;22483;-76
2022/12/02 02:41:09;;;;;;;28.70;18.60;;;;;;;-1.86;100.00;97344.63;105133;1303;22456;-76
2022/12/02 02:43:39;;;;;;;33.60;21.00;;;;;;;-1.90;100.00;97343.55;105281;1302;24450;-76
2022/12/02 02:46:07;;;;;;;;;;;;;;;-1.92;100.00;97347.24;105407;1301;22445;-76
2022/12/02 02:48:37;;;;;;;33.40;21.00;;;;;;;-1.92;100.00;97343.41;105443;1279;25257;-76
2022/12/02 02:51:08;;;;;;;32.30;21.10;;;;;;;-1.91;100.00;97344.05;105473;1286;22468;-76
2022/12/02 02:53:37;;;;;;;27.40;18.50;;;;;;;-1.90;100.00;97340.63;105449;1292;23391;-76
2022/12/02 02:56:07;;;;;;;32.30;22.50;;;;;;;-1.90;100.00;97342.19;105391;1299;24284;-76
2022/12/02 02:58:36;;;;;;;33.30;21.30;;;;;;;-1.91;100.00;97340.58;105372;1301;24324;-76
2022/12/02 03:01:10;;;;;;;32.00;20.70;;;;;;;-1.88;100.00;97339.37;105459;1295;22469;-76
2022/12/02 03:03:42;;;;;;;30.10;20.00;;;;;;;-1.89;100.00;97336.45;105442;1288;22469;-76
2022/12/02 03:06:12;;;;;;;33.60;21.70;;;;;;;-1.90;100.00;97333.48;105229;1288;22549;-76
2022/12/02 03:08:45;;;;;;;30.80;19.20;;;;;;;-1.88;100.00;97337.70;105173;1295;22463;-76
2022/12/02 03:11:14;;;;;;;32.40;21.60;;;;;;;-1.88;100.00;97334.94;105263;1303;24260;-77
2022/12/02 03:13:45;;;;;;;34.00;21.20;;;;;;;-1.87;100.00;97332.30;105251;1302;22472;-76
2022/12/02 03:16:17;;;;;;;30.60;21.30;;;;;;;-1.87;100.00;97333.51;105389;1286;22607;-76
2022/12/02 03:18:47;;;;;;;32.40;20.70;;;;;;;-1.89;100.00;97334.24;105387;1286;22896;-76
2022/12/02 03:21:18;;;;;;;32.80;20.00;;;;;;;-1.91;100.00;97328.63;105409;1301;24265;-76
2022/12/02 03:23:48;;;;;;;29.60;19.50;;;;;;;-1.95;100.00;97328.75;105401;1278;22463;-76
2022/12/02 03:26:17;;;;;;;32.60;21.80;;;;;;;-1.96;100.00;97328.34;105426;1293;24579;-76
2022/12/02 03:28:46;;;;;;;30.90;20.20;;;;;;;-1.96;100.00;97326.58;105427;1293;22567;-76
2022/12/02 03:31:16;;;;;;;23.20;14.90;;;;;;;-1.96;100.00;97324.02;105416;1278;25488;-76
2022/12/02 03:33:44;;;;;;;30.90;20.40;;;;;;;-1.98;100.00;97322.85;105402;1285;23679;-76
2022/12/02 03:36:13;;;;;;;30.00;19.90;;;;;;;-1.99;100.00;97321.44;105402;1278;22465;-76
2022/12/02 03:38:43;;;;;;;33.10;21.60;;;;;;;-2.00;100.00;97322.55;105436;1295;22448;-76
2022/12/02 03:41:12;;;;;;;33.40;20.70;;;;;;;-2.00;100.00;97321.83;105429;1285;22476;-76
2022/12/02 03:43:41;;;;;;;28.10;18.70;;;;;;;-2.02;100.00;97322.41;105453;1292;22453;-76
2022/12/02 03:46:10;;;;;;;30.40;20.10;;;;;;;-2.04;100.00;97324.11;105111;1301;24354;-76
2022/12/02 03:48:39;;;;;;;32.30;20.80;;;;;;;-2.04;100.00;97316.95;105127;1288;22464;-76
2022/12/02 03:51:11;;;;;;;29.40;18.90;;;;;;;-2.02;100.00;97315.18;105151;1298;25336;-76
2022/12/02 03:53:40;;;;;;;31.70;19.50;;;;;;;-2.00;100.00;97314.83;105092;1302;24331;-76
2022/12/02 03:56:09;;;;;;;28.80;19.00;;;;;;;-2.01;100.00;97313.89;105344;1282;22480;-76
2022/12/02 03:58:44;;;;;;;29.20;19.30;;;;;;;-2.03;100.00;97310.65;105445;1295;22434;-76
2022/12/02 04:01:13;;;;;;;31.20;20.30;;;;;;;-2.05;100.00;97313.86;105386;1295;22485;-76
2022/12/02 04:03:41;;;;;;;33.50;20.00;;;;;;;-2.05;100.00;97313.50;105448;1280;22467;-76
2022/12/02 04:06:12;;;;;;;34.10;20.50;;;;;;;-2.02;100.00;97317.05;105148;1293;22468;-76
2022/12/02 04:08:40;;;;;;;30.90;19.50;;;;;;;-2.01;100.00;97314.06;105195;1303;22482;-76
2022/12/02 04:11:08;;;;;;;32.20;20.10;;;;;;;-2.01;100.00;97315.46;105206;1303;24403;-76
2022/12/02 04:13:37;;;;;;;31.70;20.20;;;;;;;-2.03;100.00;97315.61;105221;1295;22476;-76
2022/12/02 04:16:07;;;;;;;30.40;19.00;;;;;;;-2.01;100.00;97313.39;105193;1302;22541;-76
2022/12/02 04:18:36;;;;;;;32.60;19.20;;;;;;;-2.02;100.00;97313.09;105204;1288;22495;-76
2022/12/02 04:21:05;;;;;;;34.60;20.20;;;;;;;-2.01;100.00;97313.63;105189;1287;25268;-76
2022/12/02 04:23:33;;;;;;;31.90;19.90;;;;;;;-1.99;100.00;97311.05;105205;1303;22557;-76
2022/12/02 04:26:02;;;;;;;29.10;18.80;;;;;;;-1.97;100.00;97307.14;105123;1300;22492;-77
2022/12/02 04:28:30;;;;;;;28.20;18.30;;;;;;;-1.98;100.00;97314.14;105141;1303;22468;-76
2022/12/02 04:30:59;;;;;;;28.60;19.60;;;;;;;-2.00;100.00;97309.92;105112;1302;22465;-76
2022/12/02 04:33:27;;;;;;;29.30;18.30;;;;;;;-2.01;100.00;97306.52;105150;1302;22469;-76
2022/12/02 04:35:56;;;;;;;33.00;19.50;;;;;;;-2.00;100.00;97303.36;105314;1285;24227;-76
2022/12/02 04:38:24;;;;;;;31.60;20.10;;;;;;;-2.01;100.00;97301.52;105425;1300;26182;-76
2022/12/02 04:40:53;;;;;;;32.80;19.80;;;;;;;-2.03;100.00;97299.34;105398;1300;23383;-76
2022/12/02 04:43:21;;;;;;;32.00;19.50;;;;;;;-2.04;100.00;97300.08;105452;1295;22502;-76
2022/12/02 04:45:50;;;;;;;32.40;19.60;;;;;;;-2.05;100.00;97302.16;105425;1301;25496;-76
2022/12/02 04:48:18;;;;;;;31.20;20.30;;;;;;;-2.05;100.00;97307.39;105421;1286;22480;-76
2022/12/02 04:50:47;;;;;;;28.60;18.10;;;;;;;-2.07;100.00;97306.25;105379;1282;22614;-76
2022/12/02 04:53:16;;;;;;;29.90;18.30;;;;;;;-2.07;100.00;97310.25;105416;1300;22459;-76
2022/12/02 04:55:45;;;;;;;28.60;18.30;;;;;;;-2.07;100.00;97309.80;105243;1276;24128;-76
2022/12/02 04:58:15;;;;;;;33.50;19.60;;;;;;;-2.07;100.00;97310.28;105243;1288;24113;-76
2022/12/02 05:00:56;;;;;;;29.00;18.30;;;;;;;-2.07;100.00;97312.65;105210;1283;22503;-77
2022/12/02 05:03:25;;;;;;;31.20;19.30;;;;;;;-2.05;100.00;97310.95;105265;1292;25370;-76
2022/12/02 05:05:53;;;;;;;27.60;18.20;;;;;;;-2.04;100.00;97311.08;105233;1288;22482;-76
2022/12/02 05:08:22;;;;;;;29.90;19.00;;;;;;;-2.04;100.00;97307.52;105259;1294;24230;-76
2022/12/02 05:10:50;;;;;;;35.00;21.80;;;;;;;-2.04;100.00;97311.11;105228;1302;22470;-76
2022/12/02 05:13:19;;;;;;;36.90;21.00;;;;;;;-2.03;100.00;97313.73;105248;1290;22468;-76
2022/12/02 05:15:47;;;;;;;33.80;21.40;;;;;;;-2.03;100.00;97318.48;105115;1303;22627;-76
2022/12/02 05:18:16;;;;;;;32.70;21.10;;;;;;;-2.06;100.00;97320.23;105251;1294;22472;-76
2022/12/02 05:20:46;;;;;;;27.30;18.40;;;;;;;-2.09;100.00;97318.05;105247;1288;24268;-76
2022/12/02 05:23:14;;;;;;;32.10;19.00;;;;;;;-2.07;100.00;97318.20;105238;1296;24476;-76
2022/12/02 05:25:43;;;;;;;32.20;19.00;;;;;;;-2.07;100.00;97321.71;105376;1301;24433;-76
2022/12/02 05:28:14;;;;;;;31.20;20.20;;;;;;;-2.07;100.00;97323.40;105407;1285;26479;-77
2022/12/02 05:30:43;;;;;;;32.60;20.60;;;;;;;-2.07;100.00;97323.40;105381;1287;22515;-76
2022/12/02 05:33:14;;;;;;;34.70;19.60;;;;;;;-2.05;100.00;97325.09;105448;1301;22498;-76
2022/12/02 05:35:43;;;;;;;31.20;19.90;;;;;;;-2.06;100.00;97325.56;105358;1301;22513;-76
2022/12/02 05:38:11;;;;;;;30.10;19.80;;;;;;;-2.09;100.00;97323.81;105453;1285;22459;-76
2022/12/02 05:40:40;;;;;;;31.70;19.20;;;;;;;-2.12;100.00;97325.29;105419;1301;22465;-76
2022/12/02 05:43:17;;;;;;;29.30;19.30;;;;;;;-2.14;100.00;97322.73;105392;1301;22448;-76
2022/12/02 05:45:46;;;;;;;29.00;17.70;;;;;;;-2.19;100.00;97320.57;105365;1285;24154;-76
2022/12/02 05:48:18;;;;;;;30.30;18.90;;;;;;;-2.22;100.00;97324.30;105395;1293;23327;-76
2022/12/02 05:50:47;;;;;;;26.50;17.10;;;;;;;-2.24;100.00;97322.69;105479;1286;25296;-76
2022/12/02 05:53:21;;;;;;;27.40;18.40;;;;;;;-2.27;100.00;97321.80;105424;1295;25345;-77
2022/12/02 05:55:50;;;;;;;31.10;17.60;;;;;;;-2.27;100.00;97320.85;105465;1279;25454;-76
2022/12/02 05:58:19;;;;;;;24.30;16.30;;;;;;;-2.26;100.00;97318.21;105443;1294;22475;-76
2022/12/02 06:00:55;;;;;;;24.10;16.40;;;;;;;-2.26;100.00;97319.54;105416;1285;24404;-76
2022/12/02 06:03:25;;;;;;;26.70;16.70;;;;;;;-2.25;100.00;97320.67;105380;1294;22528;-76
2022/12/02 06:05:53;;;;;;;28.10;17.50;;;;;;;-2.24;100.00;97320.23;105325;1285;24377;-76
2022/12/02 06:08:25;;;;;;;26.30;17.70;;;;;;;-2.23;100.00;97321.52;105406;1301;22693;-76
2022/12/02 06:10:58;;;;;;;25.90;17.10;;;;;;;-2.23;100.00;97317.20;105449;1286;23351;-76
2022/12/02 06:13:31;;;;;;;28.20;17.90;;;;;;;-2.24;100.00;97319.02;105405;1297;22484;-76
2022/12/02 06:16:01;;;;;;;27.00;17.70;;;;;;;-2.25;100.00;97321.75;105150;1282;22487;-76
2022/12/02 06:18:34;;;;;;;24.10;15.20;;;;;;;-2.24;100.00;97320.10;105138;1296;22509;-76
2022/12/02 06:21:11;;;;;;;26.30;17.50;;;;;;;-2.24;100.00;97321.23;105146;1294;22464;-76
2022/12/02 06:23:45;;;;;;;23.50;15.70;;;;;;;-2.23;100.00;97321.67;105168;1283;24278;-76
2022/12/02 06:26:15;;;;;;;30.50;18.60;;;;;;;-2.24;100.00;97321.06;105379;1301;22474;-76
2022/12/02 06:28:46;;;;;;;29.20;16.60;;;;;;;-2.25;100.00;97321.85;105459;1300;22462;-76
2022/12/02 06:31:18;;;;;;;27.60;17.60;;;;;;;-2.24;100.00;97320.06;105373;1295;22466;-76
2022/12/02 06:33:50;;;;;;;26.50;17.10;;;;;;;-2.27;100.00;97322.84;105508;1300;22532;-76
2022/12/02 06:36:23;;;;;;;29.50;17.60;;;;;;;-2.27;100.00;97322.11;105249;1302;22454;-76
2022/12/02 06:38:57;;;;;;;27.80;17.90;;;;;;;-2.27;100.00;97323.31;105237;1288;22556;-76
2022/12/02 06:41:28;;;;;;;25.00;16.50;;;;;;;-2.26;100.00;97326.84;105178;1282;22467;-76
2022/12/02 06:46:47;;;;;;;29.70;18.30;;;;;;;-2.31;100.00;97324.11;105407;1285;22471;-76
2022/12/02 06:49:20;;;;;;;27.90;18.80;;;;;;;-2.31;100.00;97327.66;105456;1296;22540;-76
2022/12/02 06:51:54;;;;;;;27.70;17.00;;;;;;;-2.30;100.00;97327.71;105454;1294;23349;-76
2022/12/02 06:54:27;;;;;;;26.50;17.10;;;;;;;-2.29;100.00;97333.48;105345;1282;24186;-76
2022/12/02 06:56:57;;;;;;;33.00;19.80;;;;;;;-2.29;100.00;97336.06;105409;1285;22458;-76
2022/12/02 06:59:26;;;;;;;22.50;14.30;;;;;;;-2.31;100.00;97336.58;105460;1298;22462;-76
2022/12/02 07:01:57;;;;;;;31.80;18.70;;;;;;;-2.31;100.00;97340.22;105443;1295;22461;-76
2022/12/02 07:04:46;;;;;;;28.20;18.40;;;;;;;-2.32;100.00;97337.33;105388;1300;22539;-76
2022/12/02 07:07:20;;;;;;;29.50;19.90;;;;;;;-2.31;100.00;97335.96;105238;1295;25359;-76
2022/12/02 07:09:51;;;;;;;31.40;18.50;;;;;;;-2.28;100.00;97338.52;105242;1300;22473;-76
2022/12/02 07:12:23;;;;;;;29.90;19.10;;;;;;;-2.26;100.00;97341.23;105230;1287;25769;-76
2022/12/02 07:14:54;;;;;;;31.40;18.80;;;;;;;-2.24;100.00;97337.91;105165;1302;28113;-74
2022/12/02 07:17:27;;;;;;;28.60;18.70;;;;;;;-2.22;100.00;97336.11;105190;1302;22467;-76
2022/12/02 07:20:00;;;;;;;30.50;17.80;;;;;;;-2.22;100.00;97338.73;105204;1302;22465;-75
2022/12/02 07:22:34;;;;;;;30.60;17.70;;;;;;;-2.26;100.00;97336.17;105203;1301;22463;-75
2022/12/02 07:25:29;;;;;;;28.70;19.00;;;;;;;-2.26;100.00;97332.55;105271;1301;23955;-75
2022/12/02 07:27:58;;;;;;;29.80;17.90;;;;;;;-2.23;100.00;97334.17;105213;1299;22472;-76
2022/12/02 07:30:29;;;;;;;32.10;18.90;;;;;;;-2.24;100.00;97334.53;105379;1303;26177;-76
2022/12/02 07:32:59;;;;;;;34.00;20.00;;;;;;;-2.28;100.00;97336.25;105387;1295;22503;-76
2022/12/02 07:35:28;;;;;;;28.50;17.70;;;;;;;-2.33;100.00;97339.51;105450;1286;22466;-75
2022/12/02 07:37:57;;;;;;;29.30;18.50;;;;;;;-2.34;100.00;97341.73;105568;1296;22771;-75
2022/12/02 07:40:26;;;;;;;30.20;18.10;;;;;;;-2.34;100.00;97339.93;105514;1301;22535;-75
2022/12/02 07:42:55;;;;;;;26.40;16.50;;;;;;;-2.34;100.00;97343.09;105523;1297;22473;-76
2022/12/02 07:45:23;;;;;;;30.70;18.10;;;;;;;-2.37;100.00;97346.21;105490;1289;27389;-76
2022/12/02 07:47:52;;;;;;;27.70;18.10;;;;;;;-2.40;100.00;97345.59;105491;1298;23014;-76
2022/12/02 07:50:20;;;;;;;29.30;18.30;;;;;;;-2.36;100.00;97349.21;105366;1294;22481;-75
2022/12/02 07:52:49;;;;;;;27.90;17.00;;;;;;;-2.33;100.00;97347.90;105435;1295;23530;-75
2022/12/02 07:55:18;;;;;;;27.70;17.80;;;;;;;-2.29;100.00;97347.86;105333;1279;25368;-75
2022/12/02 07:57:47;;;;;;;27.60;16.60;;;;;;;-2.29;100.00;97347.42;105436;1292;22577;-75
2022/12/02 08:00:17;;;;;;;28.20;17.40;;;;;;;-2.30;100.00;97345.97;105416;1301;22596;-75
2022/12/02 08:02:46;;;;;;;30.10;18.80;;;;;;;-2.30;100.00;97349.85;105546;1286;23120;-76
2022/12/02 08:05:15;;;;;;;30.30;18.80;;;;;;;-2.30;100.00;97348.97;105397;1265;27491;-76
2022/12/02 08:07:43;;;;;;;29.10;17.90;;;;;;;-2.28;100.00;97346.48;105427;1301;22482;-75
2022/12/02 08:10:15;;;;;;;25.80;15.90;;;;;;;-2.27;100.00;97344.33;105419;1279;22469;-76
2022/12/02 08:12:45;;;;;;;30.60;18.40;;;;;;;-2.28;100.00;97341.24;105396;1289;22558;-76
2022/12/02 08:15:15;;;;;;;26.20;18.00;;;;;;;-2.28;100.00;97341.60;105368;1288;22647;-76
2022/12/02 08:17:42;;;;;;;;;;;;;;;-2.28;100.00;97341.96;105460;1293;22587;-76
2022/12/02 08:20:13;;;;;;;27.50;17.10;;;;;;;-2.30;100.00;97345.45;105430;1292;22470;-75
2022/12/02 08:22:41;;;;;;;;;;;;;;;-2.28;100.00;97341.96;105400;1285;22483;-75
2022/12/02 08:25:11;;;;;;;28.50;18.00;;;;;;;-2.27;100.00;97344.48;105452;1301;22444;-75
2022/12/02 08:27:39;;;;;;;30.00;17.80;;;;;;;-2.30;100.00;97344.30;105508;1301;22163;-75
2022/12/02 08:30:14;;;;;;;31.70;19.00;;;;;;;-2.30;100.00;97345.89;105386;1285;22883;-75
2022/12/02 08:32:42;;;;;;;31.00;19.30;;;;;;;-2.26;100.00;97349.67;105384;1274;25669;-75
2022/12/02 08:35:12;;;;;;;27.20;17.20;;;;;;;-2.22;100.00;97348.89;105432;1275;22480;-75
2022/12/02 08:37:41;;;;;;;31.10;19.30;;;;;;;-2.22;100.00;97351.94;105412;1301;25455;-75
2022/12/02 08:40:11;;;;;;;29.10;18.80;;;;;;;-2.23;100.00;97349.52;105437;1297;22456;-75
2022/12/02 08:42:41;;;;;;;32.80;20.40;;;;;;;-2.19;100.00;97352.40;105433;1286;22499;-75
2022/12/02 08:45:11;;;;;;;27.60;19.10;;;;;;;-2.12;100.00;97352.77;105208;1301;22468;-75
2022/12/02 08:47:40;;;;;;;28.20;16.80;;;;;;;-2.07;100.00;97351.49;105193;1289;22492;-75
2022/12/02 08:50:10;;;;;;;24.60;16.40;;;;;;;-2.00;100.00;97353.92;105132;1281;22490;-75
2022/12/02 08:52:38;;;;;;;21.30;13.60;;;;;;;-1.97;100.00;97351.65;105206;1303;22588;-75
2022/12/02 08:55:07;;;;;;;25.80;17.10;;;;;;;-1.94;100.00;97348.30;105160;1303;22493;-76
2022/12/02 08:57:36;;;;;;;24.00;14.20;;;;;;;-1.88;100.00;97345.05;105449;1301;22449;-76
2022/12/02 09:00:07;;;;;;;22.40;14.90;;;;;;;-1.88;100.00;97348.52;105385;1279;22480;-76
2022/12/02 09:02:39;;;;;;;27.80;17.30;;;;;;;-1.93;100.00;97352.75;105403;1297;22496;-76
2022/12/02 09:05:09;;;;;;;27.80;17.10;;;;;;;-1.92;100.00;97351.44;105402;1275;22456;-76
2022/12/02 09:07:37;;;;;;;23.30;15.60;;;;;;;-1.86;100.00;97349.63;105418;1294;22468;-76
2022/12/02 09:10:09;;;;;;;23.90;15.70;;;;;;;-1.86;100.00;97347.42;105426;1295;22496;-76
2022/12/02 09:12:38;;;;;;;23.20;14.80;;;;;;;-1.87;100.00;97348.66;105431;1301;22507;-76
2022/12/02 09:15:08;;;;;;;21.60;14.50;;;;;;;-1.83;100.00;97344.56;105331;1301;22463;-76
2022/12/02 09:17:37;;;;;;;26.80;15.70;;;;;;;-1.78;100.00;97345.61;105450;1300;22558;-76
2022/12/02 09:20:07;;;;;;;23.70;16.40;;;;;;;-1.79;100.00;97343.98;105356;1301;23184;-76
2022/12/02 09:22:34;;;;;;;;;;;;;;;-1.76;100.00;97344.48;105474;1285;22433;-76
2022/12/02 09:25:03;;;;;;;22.90;15.40;;;;;;;-1.76;100.00;97344.52;105441;1278;22764;-76
2022/12/02 09:27:32;;;;;;;24.00;14.10;;;;;;;-1.78;99.99;97346.53;105414;1301;22504;-76
2022/12/02 09:30:00;;;;;;;26.30;16.60;;;;;;;-1.81;100.00;97346.74;105370;1301;22528;-75
2022/12/02 09:32:31;;;;;;;33.10;20.50;;;;;;;-1.88;99.99;97346.13;105454;1279;22456;-76
2022/12/02 09:35:00;;;;;;;30.20;19.30;;;;;;;-1.99;99.92;97345.54;105318;1301;23143;-76
2022/12/02 09:37:29;;;;;;;23.80;14.40;;;;;;;-2.03;100.00;97346.46;105257;1297;22465;-76
2022/12/02 09:39:58;;;;;;;35.70;22.00;;;;;;;-2.11;99.95;97348.27;105264;1293;22758;-75
2022/12/02 09:42:27;;;;;;;22.50;13.30;;;;;;;-2.21;99.87;97354.53;105290;1303;22470;-75
2022/12/02 09:44:56;;;;;;;22.20;13.70;;;;;;;-2.29;99.86;97356.34;105282;1288;29038;-75
2022/12/02 09:47:28;;;;;;;23.40;14.20;;;;;;;-2.36;100.00;97352.26;105391;1282;25009;-75
2022/12/02 09:49:56;;;;;;;22.20;13.90;;;;;;;-2.42;100.00;97351.91;105359;1285;22457;-75
2022/12/02 09:52:28;;;;;;;26.30;17.00;;;;;;;-2.45;100.00;97348.41;105507;1301;25497;-75
2022/12/02 09:54:58;;;;;;;31.70;19.90;;;;;;;-2.45;100.00;97344.25;105359;1301;22453;-75
2022/12/02 09:57:32;;;;;;;25.60;17.00;;;;;;;-2.39;100.00;97342.61;105434;1288;22453;-75
2022/12/02 10:00:04;;;;;;;31.40;19.30;;;;;;;-2.34;100.00;97343.86;105466;1286;22457;-75
2022/12/02 10:02:42;;;;;;;100.00;43.30;;;;;;;-2.34;100.00;97339.89;105432;1283;22485;-75
2022/12/02 10:05:16;;;;;;;45.00;22.50;;;;;;;-2.33;100.00;97334.60;105428;1294;22732;-76
2022/12/02 10:07:45;;;;;;;39.70;20.20;;;;;;;-2.32;100.00;97340.73;105438;1301;24432;-75
2022/12/02 10:10:17;;;;;;;22.50;14.50;;;;;;;-2.34;100.00;97336.69;105455;1279;22773;-75
2022/12/02 10:12:46;;;;;;;21.80;13.80;;;;;;;-2.33;100.00;97335.60;105428;1275;22479;-75
2022/12/02 10:15:19;;;;;;;25.50;16.10;;;;;;;-2.37;100.00;97340.06;105401;1282;22623;-75
2022/12/02 10:17:48;;;;;;;31.80;18.40;;;;;;;-2.39;100.00;97333.22;105464;1301;22470;-76
2022/12/02 10:20:20;;;;;;;21.90;13.50;;;;;;;-2.34;100.00;97329.07;105421;1292;22474;-75
2022/12/02 10:23:13;;;;;;;25.60;17.60;;;;;;;-2.32;100.00;97324.98;105531;1289;22480;-75
2022/12/02 10:25:45;;;;;;;23.60;15.20;;;;;;;-2.31;100.00;97324.67;105310;1291;22483;-75
2022/12/02 10:28:26;;;;;;;24.30;14.40;;;;;;;-2.31;100.00;97323.95;105422;1301;25451;-75
2022/12/02 10:30:57;;;;;;;21.00;13.80;;;;;;;-2.30;100.00;97322.88;105482;1291;22528;-75
2022/12/02 10:33:28;;;;;;;22.50;13.40;;;;;;;-2.30;100.00;97326.48;105476;1279;22516;-76
2022/12/02 10:35:58;;;;;;;25.90;16.50;;;;;;;-2.30;100.00;97326.13;105420;1285;24638;-75
2022/12/02 10:38:34;;;;;;;26.00;13.40;;;;;;;-2.28;100.00;97322.98;105431;1301;25349;-75
2022/12/02 10:41:15;;;;;;;24.00;14.90;;;;;;;-2.28;100.00;97323.42;105492;1301;22467;-75
2022/12/02 10:44:00;;;;;;;20.50;14.30;;;;;;;-2.29;100.00;97321.52;105477;1279;22459;-75
2022/12/02 10:46:29;;;;;;;20.20;14.00;;;;;;;-2.25;100.00;97319.09;105359;1278;25379;-75
2022/12/02 10:49:15;;;;;;;22.30;14.10;;;;;;;-2.19;100.00;97317.85;105401;1281;22518;-75
2022/12/02 10:51:44;;;;;;;22.30;14.50;;;;;;;-2.16;100.00;97319.08;105352;1297;22589;-75
2022/12/02 10:54:24;;;;;;;21.40;14.30;;;;;;;-2.11;100.00;97320.36;105289;1294;23381;-75
2022/12/02 10:56:56;;;;;;;20.40;14.50;;;;;;;-2.06;100.00;97318.30;105437;1298;22465;-75
2022/12/02 10:59:24;;;;;;;21.00;14.60;;;;;;;-2.00;100.00;97318.23;105459;1292;22505;-75
2022/12/02 11:01:54;;;;;;;19.00;12.70;;;;;;;-2.00;100.00;97317.32;105439;1295;22459;-75
2022/12/02 11:04:24;;;;;;;21.20;14.30;;;;;;;-1.99;100.00;97314.64;105391;1300;22458;-75
2022/12/02 11:06:55;;;;;;;20.30;13.70;;;;;;;-1.96;100.00;97315.50;105345;1281;26430;-76
2022/12/02 11:09:25;;;;;;;20.40;14.20;;;;;;;-1.89;100.00;97312.54;105432;1284;22492;-75
2022/12/02 11:11:56;;;;;;;21.70;15.60;;;;;;;-1.84;100.00;97309.36;105360;1296;22466;-75
2022/12/02 11:14:55;;;;;;;22.40;15.60;;;;;;;-1.80;100.00;97307.13;105364;1301;22497;-75
2022/12/02 11:17:48;;;;;;;20.80;14.70;;;;;;;-1.76;100.00;97306.53;105454;1281;22541;-75
2022/12/02 11:20:35;;;;;;;21.20;14.60;;;;;;;-1.73;100.00;97304.15;105403;1294;23363;-76
2022/12/02 11:23:17;;;;;;;23.00;15.20;;;;;;;-1.75;100.00;97299.47;105419;1301;22534;-76